sensor_id;sensor_type;location;lat;lon;timestamp;P1;durP1;ratioP1;P2;durP2;ratioP2
55003;SDS011;40900;52.710;6.438;2023-05-07T00:01:45;25.73;;;22.48;;
55003;SDS011;40900;52.710;6.438;2023-05-07T00:04:11;26.48;;;23.15;;
55003;SDS011;40900;52.710;6.438;2023-05-07T00:06:38;25.55;;;22.88;;
55003;SDS011;40900;52.710;6.438;2023-05-07T00:09:04;24.65;;;21.98;;
55003;SDS011;40900;52.710;6.438;2023-05-07T00:11:30;27.52;;;22.83;;
55003;SDS011;40900;52.710;6.438;2023-05-07T00:13:56;25.98;;;23.20;;
55003;SDS011;40900;52.710;6.438;2023-05-07T00:16:22;27.67;;;24.20;;
55003;SDS011;40900;52.710;6.438;2023-05-07T00:18:48;29.83;;;22.15;;
55003;SDS011;40900;52.710;6.438;2023-05-07T00:21:14;24.55;;;21.48;;
55003;SDS011;40900;52.710;6.438;2023-05-07T00:23:39;27.23;;;22.25;;
55003;SDS011;40900;52.710;6.438;2023-05-07T00:26:05;24.55;;;22.05;;
55003;SDS011;40900;52.710;6.438;2023-05-07T00:28:31;26.95;;;23.25;;
55003;SDS011;40900;52.710;6.438;2023-05-07T00:30:56;25.90;;;22.90;;
55003;SDS011;40900;52.710;6.438;2023-05-07T00:33:22;25.88;;;21.83;;
55003;SDS011;40900;52.710;6.438;2023-05-07T00:35:48;28.10;;;22.83;;
55003;SDS011;40900;52.710;6.438;2023-05-07T00:38:14;24.67;;;19.75;;
55003;SDS011;40900;52.710;6.438;2023-05-07T00:40:40;23.10;;;20.17;;
55003;SDS011;40900;52.710;6.438;2023-05-07T00:43:06;26.15;;;19.70;;
55003;SDS011;40900;52.710;6.438;2023-05-07T00:45:32;21.23;;;18.13;;
55003;SDS011;40900;52.710;6.438;2023-05-07T00:47:59;22.60;;;17.92;;
55003;SDS011;40900;52.710;6.438;2023-05-07T00:50:26;21.55;;;18.55;;
55003;SDS011;40900;52.710;6.438;2023-05-07T00:52:52;23.35;;;18.63;;
55003;SDS011;40900;52.710;6.438;2023-05-07T00:55:18;21.70;;;18.20;;
55003;SDS011;40900;52.710;6.438;2023-05-07T00:57:45;22.45;;;18.25;;
55003;SDS011;40900;52.710;6.438;2023-05-07T01:00:11;22.58;;;17.52;;
55003;SDS011;40900;52.710;6.438;2023-05-07T01:02:38;20.27;;;18.10;;
55003;SDS011;40900;52.710;6.438;2023-05-07T01:05:04;17.85;;;15.88;;
55003;SDS011;40900;52.710;6.438;2023-05-07T01:07:32;20.33;;;17.02;;
55003;SDS011;40900;52.710;6.438;2023-05-07T01:09:59;19.35;;;15.20;;
55003;SDS011;40900;52.710;6.438;2023-05-07T01:12:26;18.17;;;14.32;;
55003;SDS011;40900;52.710;6.438;2023-05-07T01:14:53;20.10;;;14.43;;
55003;SDS011;40900;52.710;6.438;2023-05-07T01:17:19;20.88;;;15.27;;
55003;SDS011;40900;52.710;6.438;2023-05-07T01:19:45;20.27;;;16.20;;
55003;SDS011;40900;52.710;6.438;2023-05-07T01:22:12;19.27;;;15.90;;
55003;SDS011;40900;52.710;6.438;2023-05-07T01:24:41;18.98;;;15.57;;
55003;SDS011;40900;52.710;6.438;2023-05-07T01:27:08;20.50;;;15.40;;
55003;SDS011;40900;52.710;6.438;2023-05-07T01:29:33;18.00;;;15.00;;
55003;SDS011;40900;52.710;6.438;2023-05-07T01:32:00;19.77;;;16.08;;
55003;SDS011;40900;52.710;6.438;2023-05-07T01:34:27;17.30;;;15.50;;
55003;SDS011;40900;52.710;6.438;2023-05-07T01:36:55;20.83;;;16.25;;
55003;SDS011;40900;52.710;6.438;2023-05-07T01:39:26;19.67;;;15.23;;
55003;SDS011;40900;52.710;6.438;2023-05-07T01:41:54;21.17;;;15.40;;
55003;SDS011;40900;52.710;6.438;2023-05-07T01:44:21;20.30;;;15.88;;
55003;SDS011;40900;52.710;6.438;2023-05-07T01:46:48;20.40;;;17.30;;
55003;SDS011;40900;52.710;6.438;2023-05-07T01:49:15;20.42;;;16.45;;
55003;SDS011;40900;52.710;6.438;2023-05-07T01:51:41;20.73;;;16.88;;
55003;SDS011;40900;52.710;6.438;2023-05-07T01:54:08;20.50;;;16.25;;
55003;SDS011;40900;52.710;6.438;2023-05-07T01:56:34;23.30;;;18.73;;
55003;SDS011;40900;52.710;6.438;2023-05-07T01:59:00;23.58;;;19.35;;
55003;SDS011;40900;52.710;6.438;2023-05-07T02:01:27;22.60;;;20.15;;
55003;SDS011;40900;52.710;6.438;2023-05-07T02:03:52;24.80;;;19.38;;
55003;SDS011;40900;52.710;6.438;2023-05-07T02:06:19;22.25;;;19.15;;
55003;SDS011;40900;52.710;6.438;2023-05-07T02:08:45;21.70;;;19.08;;
55003;SDS011;40900;52.710;6.438;2023-05-07T02:11:11;23.75;;;19.70;;
55003;SDS011;40900;52.710;6.438;2023-05-07T02:13:37;26.98;;;21.40;;
55003;SDS011;40900;52.710;6.438;2023-05-07T02:16:02;26.38;;;20.85;;
55003;SDS011;40900;52.710;6.438;2023-05-07T02:18:28;24.95;;;20.67;;
55003;SDS011;40900;52.710;6.438;2023-05-07T02:20:54;25.63;;;20.80;;
55003;SDS011;40900;52.710;6.438;2023-05-07T02:23:20;28.42;;;21.23;;
55003;SDS011;40900;52.710;6.438;2023-05-07T02:25:46;23.67;;;20.88;;
55003;SDS011;40900;52.710;6.438;2023-05-07T02:28:12;24.42;;;21.42;;
55003;SDS011;40900;52.710;6.438;2023-05-07T02:30:38;27.02;;;21.33;;
55003;SDS011;40900;52.710;6.438;2023-05-07T02:33:04;24.23;;;20.60;;
55003;SDS011;40900;52.710;6.438;2023-05-07T02:35:30;24.60;;;19.73;;
55003;SDS011;40900;52.710;6.438;2023-05-07T02:37:55;28.00;;;22.45;;
55003;SDS011;40900;52.710;6.438;2023-05-07T02:40:21;27.98;;;23.08;;
55003;SDS011;40900;52.710;6.438;2023-05-07T02:42:47;25.40;;;21.77;;
55003;SDS011;40900;52.710;6.438;2023-05-07T02:45:13;25.67;;;20.63;;
55003;SDS011;40900;52.710;6.438;2023-05-07T02:47:39;26.85;;;22.00;;
55003;SDS011;40900;52.710;6.438;2023-05-07T02:50:05;25.65;;;21.80;;
55003;SDS011;40900;52.710;6.438;2023-05-07T02:52:31;27.13;;;22.08;;
55003;SDS011;40900;52.710;6.438;2023-05-07T02:54:57;28.45;;;22.98;;
55003;SDS011;40900;52.710;6.438;2023-05-07T02:57:23;26.25;;;21.92;;
55003;SDS011;40900;52.710;6.438;2023-05-07T02:59:48;27.73;;;22.80;;
55003;SDS011;40900;52.710;6.438;2023-05-07T03:02:14;27.92;;;22.80;;
55003;SDS011;40900;52.710;6.438;2023-05-07T03:04:40;28.17;;;22.70;;
55003;SDS011;40900;52.710;6.438;2023-05-07T03:07:06;26.70;;;22.85;;
55003;SDS011;40900;52.710;6.438;2023-05-07T03:09:31;28.55;;;25.48;;
55003;SDS011;40900;52.710;6.438;2023-05-07T03:11:57;28.15;;;24.23;;
55003;SDS011;40900;52.710;6.438;2023-05-07T03:14:23;31.80;;;24.88;;
55003;SDS011;40900;52.710;6.438;2023-05-07T03:16:49;31.83;;;24.15;;
55003;SDS011;40900;52.710;6.438;2023-05-07T03:19:15;34.88;;;25.80;;
55003;SDS011;40900;52.710;6.438;2023-05-07T03:21:41;32.15;;;25.08;;
55003;SDS011;40900;52.710;6.438;2023-05-07T03:24:06;30.88;;;25.75;;
55003;SDS011;40900;52.710;6.438;2023-05-07T03:26:32;29.20;;;24.83;;
55003;SDS011;40900;52.710;6.438;2023-05-07T03:28:58;31.30;;;26.30;;
55003;SDS011;40900;52.710;6.438;2023-05-07T03:31:24;32.60;;;26.80;;
55003;SDS011;40900;52.710;6.438;2023-05-07T03:33:50;34.28;;;28.63;;
55003;SDS011;40900;52.710;6.438;2023-05-07T03:36:20;33.28;;;27.13;;
55003;SDS011;40900;52.710;6.438;2023-05-07T03:38:46;32.25;;;27.50;;
55003;SDS011;40900;52.710;6.438;2023-05-07T03:41:12;32.00;;;26.58;;
55003;SDS011;40900;52.710;6.438;2023-05-07T03:43:38;33.63;;;27.63;;
55003;SDS011;40900;52.710;6.438;2023-05-07T03:46:04;36.83;;;27.65;;
55003;SDS011;40900;52.710;6.438;2023-05-07T03:48:30;40.95;;;29.73;;
55003;SDS011;40900;52.710;6.438;2023-05-07T03:50:56;34.25;;;28.38;;
55003;SDS011;40900;52.710;6.438;2023-05-07T03:53:23;37.85;;;29.58;;
55003;SDS011;40900;52.710;6.438;2023-05-07T03:55:48;33.00;;;28.35;;
55003;SDS011;40900;52.710;6.438;2023-05-07T03:58:15;38.65;;;29.98;;
55003;SDS011;40900;52.710;6.438;2023-05-07T04:00:41;33.45;;;29.20;;
55003;SDS011;40900;52.710;6.438;2023-05-07T04:03:07;37.75;;;31.23;;
55003;SDS011;40900;52.710;6.438;2023-05-07T04:05:33;39.10;;;31.00;;
55003;SDS011;40900;52.710;6.438;2023-05-07T04:07:59;40.53;;;31.73;;
55003;SDS011;40900;52.710;6.438;2023-05-07T04:10:26;39.53;;;31.23;;
55003;SDS011;40900;52.710;6.438;2023-05-07T04:12:53;44.35;;;32.05;;
55003;SDS011;40900;52.710;6.438;2023-05-07T04:15:19;38.75;;;31.88;;
55003;SDS011;40900;52.710;6.438;2023-05-07T04:17:44;42.60;;;32.38;;
55003;SDS011;40900;52.710;6.438;2023-05-07T04:20:14;37.90;;;30.92;;
55003;SDS011;40900;52.710;6.438;2023-05-07T04:22:41;39.80;;;33.10;;
55003;SDS011;40900;52.710;6.438;2023-05-07T04:25:07;45.17;;;34.08;;
55003;SDS011;40900;52.710;6.438;2023-05-07T04:27:36;39.60;;;33.15;;
55003;SDS011;40900;52.710;6.438;2023-05-07T04:30:02;38.80;;;31.60;;
55003;SDS011;40900;52.710;6.438;2023-05-07T04:32:29;39.80;;;33.47;;
55003;SDS011;40900;52.710;6.438;2023-05-07T04:34:55;42.33;;;33.90;;
55003;SDS011;40900;52.710;6.438;2023-05-07T04:37:21;40.17;;;33.65;;
55003;SDS011;40900;52.710;6.438;2023-05-07T04:39:47;44.13;;;34.03;;
55003;SDS011;40900;52.710;6.438;2023-05-07T04:42:16;45.53;;;34.85;;
55003;SDS011;40900;52.710;6.438;2023-05-07T04:44:43;43.05;;;34.47;;
55003;SDS011;40900;52.710;6.438;2023-05-07T04:47:10;43.30;;;35.17;;
55003;SDS011;40900;52.710;6.438;2023-05-07T04:49:36;41.30;;;33.25;;
55003;SDS011;40900;52.710;6.438;2023-05-07T04:52:03;40.40;;;33.85;;
55003;SDS011;40900;52.710;6.438;2023-05-07T04:54:29;41.67;;;33.72;;
55003;SDS011;40900;52.710;6.438;2023-05-07T04:56:55;45.10;;;33.95;;
55003;SDS011;40900;52.710;6.438;2023-05-07T04:59:21;46.03;;;34.17;;
55003;SDS011;40900;52.710;6.438;2023-05-07T05:01:47;41.65;;;32.92;;
55003;SDS011;40900;52.710;6.438;2023-05-07T05:04:13;39.30;;;32.53;;
55003;SDS011;40900;52.710;6.438;2023-05-07T05:06:39;37.53;;;32.45;;
55003;SDS011;40900;52.710;6.438;2023-05-07T05:09:04;37.53;;;32.15;;
55003;SDS011;40900;52.710;6.438;2023-05-07T05:11:31;40.58;;;32.13;;
55003;SDS011;40900;52.710;6.438;2023-05-07T05:13:58;41.10;;;31.75;;
55003;SDS011;40900;52.710;6.438;2023-05-07T05:16:24;43.88;;;32.53;;
55003;SDS011;40900;52.710;6.438;2023-05-07T05:18:50;42.13;;;33.35;;
55003;SDS011;40900;52.710;6.438;2023-05-07T05:21:17;37.25;;;30.30;;
55003;SDS011;40900;52.710;6.438;2023-05-07T05:23:43;42.00;;;31.23;;
55003;SDS011;40900;52.710;6.438;2023-05-07T05:26:08;36.72;;;31.27;;
55003;SDS011;40900;52.710;6.438;2023-05-07T05:28:35;37.80;;;30.23;;
55003;SDS011;40900;52.710;6.438;2023-05-07T05:31:00;38.78;;;30.88;;
55003;SDS011;40900;52.710;6.438;2023-05-07T05:33:26;37.17;;;31.58;;
55003;SDS011;40900;52.710;6.438;2023-05-07T05:35:53;35.10;;;29.17;;
55003;SDS011;40900;52.710;6.438;2023-05-07T05:38:19;36.45;;;30.02;;
55003;SDS011;40900;52.710;6.438;2023-05-07T05:40:46;38.10;;;30.67;;
55003;SDS011;40900;52.710;6.438;2023-05-07T05:43:12;33.20;;;29.50;;
55003;SDS011;40900;52.710;6.438;2023-05-07T05:45:38;35.40;;;28.70;;
55003;SDS011;40900;52.710;6.438;2023-05-07T05:48:04;38.17;;;30.67;;
55003;SDS011;40900;52.710;6.438;2023-05-07T05:50:30;34.08;;;28.08;;
55003;SDS011;40900;52.710;6.438;2023-05-07T05:52:55;37.05;;;30.77;;
55003;SDS011;40900;52.710;6.438;2023-05-07T05:55:22;37.95;;;29.52;;
55003;SDS011;40900;52.710;6.438;2023-05-07T05:57:48;32.70;;;28.63;;
55003;SDS011;40900;52.710;6.438;2023-05-07T06:00:15;34.60;;;28.10;;
55003;SDS011;40900;52.710;6.438;2023-05-07T06:02:41;34.10;;;28.05;;
55003;SDS011;40900;52.710;6.438;2023-05-07T06:05:08;31.77;;;28.40;;
55003;SDS011;40900;52.710;6.438;2023-05-07T06:07:34;35.05;;;28.83;;
55003;SDS011;40900;52.710;6.438;2023-05-07T06:10:00;32.90;;;27.27;;
55003;SDS011;40900;52.710;6.438;2023-05-07T06:12:26;31.65;;;26.92;;
55003;SDS011;40900;52.710;6.438;2023-05-07T06:14:52;36.45;;;28.67;;
55003;SDS011;40900;52.710;6.438;2023-05-07T06:17:18;34.70;;;29.63;;
55003;SDS011;40900;52.710;6.438;2023-05-07T06:19:43;33.60;;;28.38;;
55003;SDS011;40900;52.710;6.438;2023-05-07T06:22:09;32.90;;;28.17;;
55003;SDS011;40900;52.710;6.438;2023-05-07T06:24:35;33.65;;;28.95;;
55003;SDS011;40900;52.710;6.438;2023-05-07T06:27:00;33.97;;;28.33;;
55003;SDS011;40900;52.710;6.438;2023-05-07T06:29:26;35.72;;;28.48;;
55003;SDS011;40900;52.710;6.438;2023-05-07T06:31:52;32.95;;;28.73;;
55003;SDS011;40900;52.710;6.438;2023-05-07T06:34:19;34.95;;;30.10;;
55003;SDS011;40900;52.710;6.438;2023-05-07T06:36:44;33.38;;;28.60;;
55003;SDS011;40900;52.710;6.438;2023-05-07T06:39:10;31.77;;;27.80;;
55003;SDS011;40900;52.710;6.438;2023-05-07T06:41:36;36.47;;;29.27;;
55003;SDS011;40900;52.710;6.438;2023-05-07T06:44:04;34.15;;;29.67;;
55003;SDS011;40900;52.710;6.438;2023-05-07T06:46:30;32.83;;;28.48;;
55003;SDS011;40900;52.710;6.438;2023-05-07T06:48:56;34.28;;;29.02;;
55003;SDS011;40900;52.710;6.438;2023-05-07T06:51:22;32.42;;;28.60;;
55003;SDS011;40900;52.710;6.438;2023-05-07T06:53:48;35.50;;;29.48;;
55003;SDS011;40900;52.710;6.438;2023-05-07T06:56:13;35.17;;;29.23;;
55003;SDS011;40900;52.710;6.438;2023-05-07T06:58:39;33.33;;;29.63;;
55003;SDS011;40900;52.710;6.438;2023-05-07T07:01:05;33.17;;;28.05;;
55003;SDS011;40900;52.710;6.438;2023-05-07T07:03:31;32.60;;;27.77;;
55003;SDS011;40900;52.710;6.438;2023-05-07T07:05:56;33.63;;;28.08;;
55003;SDS011;40900;52.710;6.438;2023-05-07T07:08:22;33.95;;;28.23;;
55003;SDS011;40900;52.710;6.438;2023-05-07T07:10:48;33.75;;;28.92;;
55003;SDS011;40900;52.710;6.438;2023-05-07T07:13:14;34.90;;;28.73;;
55003;SDS011;40900;52.710;6.438;2023-05-07T07:15:40;31.80;;;27.27;;
55003;SDS011;40900;52.710;6.438;2023-05-07T07:18:06;35.22;;;30.20;;
55003;SDS011;40900;52.710;6.438;2023-05-07T07:20:32;34.22;;;28.95;;
55003;SDS011;40900;52.710;6.438;2023-05-07T07:22:57;36.03;;;28.40;;
55003;SDS011;40900;52.710;6.438;2023-05-07T07:25:24;34.33;;;29.90;;
55003;SDS011;40900;52.710;6.438;2023-05-07T07:27:50;36.85;;;29.33;;
55003;SDS011;40900;52.710;6.438;2023-05-07T07:30:16;34.33;;;29.30;;
55003;SDS011;40900;52.710;6.438;2023-05-07T07:32:41;32.47;;;28.92;;
55003;SDS011;40900;52.710;6.438;2023-05-07T07:35:07;34.13;;;28.52;;
55003;SDS011;40900;52.710;6.438;2023-05-07T07:37:33;37.38;;;29.50;;
55003;SDS011;40900;52.710;6.438;2023-05-07T07:39:59;36.30;;;29.20;;
55003;SDS011;40900;52.710;6.438;2023-05-07T07:42:25;32.70;;;28.33;;
55003;SDS011;40900;52.710;6.438;2023-05-07T07:44:51;35.67;;;28.48;;
55003;SDS011;40900;52.710;6.438;2023-05-07T07:47:17;34.78;;;29.52;;
55003;SDS011;40900;52.710;6.438;2023-05-07T07:49:43;32.70;;;29.10;;
55003;SDS011;40900;52.710;6.438;2023-05-07T07:52:09;33.58;;;28.08;;
55003;SDS011;40900;52.710;6.438;2023-05-07T07:54:34;32.65;;;28.55;;
55003;SDS011;40900;52.710;6.438;2023-05-07T07:57:00;33.65;;;28.38;;
55003;SDS011;40900;52.710;6.438;2023-05-07T07:59:26;35.05;;;29.10;;
55003;SDS011;40900;52.710;6.438;2023-05-07T08:01:52;32.45;;;27.73;;
55003;SDS011;40900;52.710;6.438;2023-05-07T08:04:20;32.70;;;28.20;;
55003;SDS011;40900;52.710;6.438;2023-05-07T08:06:46;32.83;;;28.80;;
55003;SDS011;40900;52.710;6.438;2023-05-07T08:09:12;32.28;;;27.50;;
55003;SDS011;40900;52.710;6.438;2023-05-07T08:11:38;36.40;;;28.83;;
55003;SDS011;40900;52.710;6.438;2023-05-07T08:14:04;34.83;;;29.70;;
55003;SDS011;40900;52.710;6.438;2023-05-07T08:16:30;32.95;;;27.95;;
55003;SDS011;40900;52.710;6.438;2023-05-07T08:18:56;32.80;;;28.13;;
55003;SDS011;40900;52.710;6.438;2023-05-07T08:21:22;31.27;;;27.90;;
55003;SDS011;40900;52.710;6.438;2023-05-07T08:23:48;31.27;;;27.35;;
55003;SDS011;40900;52.710;6.438;2023-05-07T08:26:14;32.67;;;27.75;;
55003;SDS011;40900;52.710;6.438;2023-05-07T08:28:40;31.10;;;27.48;;
55003;SDS011;40900;52.710;6.438;2023-05-07T08:31:05;33.28;;;28.58;;
55003;SDS011;40900;52.710;6.438;2023-05-07T08:33:31;32.80;;;27.98;;
55003;SDS011;40900;52.710;6.438;2023-05-07T08:35:57;33.92;;;27.67;;
55003;SDS011;40900;52.710;6.438;2023-05-07T08:38:23;31.40;;;26.23;;
55003;SDS011;40900;52.710;6.438;2023-05-07T08:40:49;30.73;;;27.02;;
55003;SDS011;40900;52.710;6.438;2023-05-07T08:43:14;31.60;;;26.15;;
55003;SDS011;40900;52.710;6.438;2023-05-07T08:45:41;31.48;;;26.45;;
55003;SDS011;40900;52.710;6.438;2023-05-07T08:48:19;30.13;;;25.20;;
55003;SDS011;40900;52.710;6.438;2023-05-07T08:50:50;29.08;;;25.20;;
55003;SDS011;40900;52.710;6.438;2023-05-07T08:53:16;29.83;;;25.98;;
55003;SDS011;40900;52.710;6.438;2023-05-07T08:55:42;28.00;;;24.88;;
55003;SDS011;40900;52.710;6.438;2023-05-07T08:58:08;26.95;;;24.05;;
55003;SDS011;40900;52.710;6.438;2023-05-07T09:00:35;27.80;;;24.80;;
55003;SDS011;40900;52.710;6.438;2023-05-07T09:03:02;26.80;;;23.25;;
55003;SDS011;40900;52.710;6.438;2023-05-07T09:05:28;27.55;;;23.98;;
55003;SDS011;40900;52.710;6.438;2023-05-07T09:07:53;27.42;;;24.55;;
55003;SDS011;40900;52.710;6.438;2023-05-07T09:10:21;29.08;;;25.90;;
55003;SDS011;40900;52.710;6.438;2023-05-07T09:12:46;27.70;;;24.83;;
55003;SDS011;40900;52.710;6.438;2023-05-07T09:15:13;30.00;;;24.88;;
55003;SDS011;40900;52.710;6.438;2023-05-07T09:17:39;27.55;;;24.65;;
55003;SDS011;40900;52.710;6.438;2023-05-07T09:20:07;27.23;;;24.40;;
55003;SDS011;40900;52.710;6.438;2023-05-07T09:22:35;27.13;;;24.23;;
55003;SDS011;40900;52.710;6.438;2023-05-07T09:25:02;26.35;;;23.52;;
55003;SDS011;40900;52.710;6.438;2023-05-07T09:27:28;29.50;;;25.48;;
55003;SDS011;40900;52.710;6.438;2023-05-07T09:29:55;28.92;;;23.55;;
55003;SDS011;40900;52.710;6.438;2023-05-07T09:32:21;25.45;;;22.83;;
55003;SDS011;40900;52.710;6.438;2023-05-07T09:34:46;26.20;;;23.40;;
55003;SDS011;40900;52.710;6.438;2023-05-07T09:37:12;28.63;;;23.40;;
55003;SDS011;40900;52.710;6.438;2023-05-07T09:39:43;27.67;;;23.77;;
55003;SDS011;40900;52.710;6.438;2023-05-07T09:42:13;26.52;;;23.70;;
55003;SDS011;40900;52.710;6.438;2023-05-07T09:44:45;27.00;;;24.23;;
55003;SDS011;40900;52.710;6.438;2023-05-07T09:47:12;27.05;;;24.20;;
55003;SDS011;40900;52.710;6.438;2023-05-07T09:49:46;25.67;;;22.95;;
55003;SDS011;40900;52.710;6.438;2023-05-07T09:52:13;24.45;;;21.95;;
55003;SDS011;40900;52.710;6.438;2023-05-07T09:54:40;24.98;;;22.33;;
55003;SDS011;40900;52.710;6.438;2023-05-07T09:57:09;25.92;;;23.30;;
55003;SDS011;40900;52.710;6.438;2023-05-07T09:59:37;24.60;;;21.77;;
55003;SDS011;40900;52.710;6.438;2023-05-07T10:02:04;26.10;;;22.52;;
55003;SDS011;40900;52.710;6.438;2023-05-07T10:04:31;25.83;;;23.15;;
55003;SDS011;40900;52.710;6.438;2023-05-07T10:06:57;26.85;;;24.15;;
55003;SDS011;40900;52.710;6.438;2023-05-07T10:09:25;25.45;;;21.90;;
55003;SDS011;40900;52.710;6.438;2023-05-07T10:11:51;23.15;;;20.67;;
55003;SDS011;40900;52.710;6.438;2023-05-07T10:14:19;24.90;;;22.30;;
55003;SDS011;40900;52.710;6.438;2023-05-07T10:16:46;25.50;;;22.75;;
55003;SDS011;40900;52.710;6.438;2023-05-07T10:19:12;23.75;;;21.40;;
55003;SDS011;40900;52.710;6.438;2023-05-07T10:21:42;23.30;;;20.83;;
55003;SDS011;40900;52.710;6.438;2023-05-07T10:24:20;24.02;;;20.73;;
55003;SDS011;40900;52.710;6.438;2023-05-07T10:26:50;23.20;;;20.85;;
55003;SDS011;40900;52.710;6.438;2023-05-07T10:34:19;23.73;;;21.23;;
55003;SDS011;40900;52.710;6.438;2023-05-07T10:36:49;25.42;;;21.42;;
55003;SDS011;40900;52.710;6.438;2023-05-07T10:39:17;22.88;;;20.58;;
55003;SDS011;40900;52.710;6.438;2023-05-07T10:41:43;23.17;;;20.73;;
55003;SDS011;40900;52.710;6.438;2023-05-07T10:44:09;24.58;;;21.98;;
55003;SDS011;40900;52.710;6.438;2023-05-07T10:46:35;23.77;;;21.38;;
55003;SDS011;40900;52.710;6.438;2023-05-07T10:51:31;21.95;;;19.65;;
55003;SDS011;40900;52.710;6.438;2023-05-07T10:56:38;20.77;;;18.67;;
55003;SDS011;40900;52.710;6.438;2023-05-07T11:01:52;21.52;;;19.33;;
55003;SDS011;40900;52.710;6.438;2023-05-07T11:04:19;21.25;;;18.55;;
55003;SDS011;40900;52.710;6.438;2023-05-07T11:12:16;20.00;;;17.90;;
55003;SDS011;40900;52.710;6.438;2023-05-07T11:17:11;20.67;;;18.48;;
55003;SDS011;40900;52.710;6.438;2023-05-07T11:22:35;20.33;;;17.70;;
55003;SDS011;40900;52.710;6.438;2023-05-07T11:25:05;19.33;;;17.13;;
55003;SDS011;40900;52.710;6.438;2023-05-07T11:27:31;19.02;;;17.05;;
55003;SDS011;40900;52.710;6.438;2023-05-07T11:29:58;19.85;;;17.75;;
55003;SDS011;40900;52.710;6.438;2023-05-07T11:32:24;20.25;;;18.25;;
55003;SDS011;40900;52.710;6.438;2023-05-07T11:34:52;20.98;;;18.48;;
55003;SDS011;40900;52.710;6.438;2023-05-07T11:37:22;21.90;;;19.52;;
55003;SDS011;40900;52.710;6.438;2023-05-07T11:39:49;20.90;;;18.85;;
55003;SDS011;40900;52.710;6.438;2023-05-07T11:42:29;19.45;;;17.52;;
55003;SDS011;40900;52.710;6.438;2023-05-07T11:44:56;20.33;;;18.23;;
55003;SDS011;40900;52.710;6.438;2023-05-07T11:47:23;19.90;;;17.90;;
55003;SDS011;40900;52.710;6.438;2023-05-07T11:49:54;26.75;;;17.77;;
55003;SDS011;40900;52.710;6.438;2023-05-07T11:52:21;19.60;;;17.33;;
55003;SDS011;40900;52.710;6.438;2023-05-07T11:54:51;20.17;;;18.17;;
55003;SDS011;40900;52.710;6.438;2023-05-07T11:57:18;19.48;;;17.60;;
55003;SDS011;40900;52.710;6.438;2023-05-07T11:59:44;21.00;;;17.65;;
55003;SDS011;40900;52.710;6.438;2023-05-07T12:02:13;20.13;;;18.02;;
55003;SDS011;40900;52.710;6.438;2023-05-07T12:04:42;20.52;;;18.33;;
55003;SDS011;40900;52.710;6.438;2023-05-07T12:07:14;18.42;;;16.20;;
55003;SDS011;40900;52.710;6.438;2023-05-07T12:09:41;20.33;;;18.33;;
55003;SDS011;40900;52.710;6.438;2023-05-07T12:12:07;19.40;;;17.50;;
55003;SDS011;40900;52.710;6.438;2023-05-07T12:14:33;21.50;;;17.85;;
55003;SDS011;40900;52.710;6.438;2023-05-07T12:17:02;18.75;;;16.85;;
55003;SDS011;40900;52.710;6.438;2023-05-07T12:19:29;20.25;;;18.25;;
55003;SDS011;40900;52.710;6.438;2023-05-07T12:21:55;19.85;;;17.85;;
55003;SDS011;40900;52.710;6.438;2023-05-07T12:24:22;21.40;;;19.15;;
55003;SDS011;40900;52.710;6.438;2023-05-07T12:26:48;21.20;;;18.38;;
55003;SDS011;40900;52.710;6.438;2023-05-07T12:29:14;21.05;;;18.58;;
55003;SDS011;40900;52.710;6.438;2023-05-07T12:31:43;19.60;;;17.60;;
55003;SDS011;40900;52.710;6.438;2023-05-07T12:34:12;20.38;;;18.27;;
55003;SDS011;40900;52.710;6.438;2023-05-07T12:36:38;19.70;;;17.73;;
55003;SDS011;40900;52.710;6.438;2023-05-07T12:39:08;20.42;;;18.38;;
55003;SDS011;40900;52.710;6.438;2023-05-07T12:41:54;19.60;;;17.60;;
55003;SDS011;40900;52.710;6.438;2023-05-07T12:44:23;18.98;;;17.08;;
55003;SDS011;40900;52.710;6.438;2023-05-07T12:46:56;19.25;;;17.13;;
55003;SDS011;40900;52.710;6.438;2023-05-07T12:49:22;21.15;;;18.50;;
55003;SDS011;40900;52.710;6.438;2023-05-07T12:51:49;20.75;;;17.38;;
55003;SDS011;40900;52.710;6.438;2023-05-07T12:54:31;20.55;;;18.08;;
55003;SDS011;40900;52.710;6.438;2023-05-07T12:57:16;21.80;;;18.10;;
55003;SDS011;40900;52.710;6.438;2023-05-07T12:59:44;20.65;;;18.15;;
55003;SDS011;40900;52.710;6.438;2023-05-07T13:02:10;25.42;;;19.30;;
55003;SDS011;40900;52.710;6.438;2023-05-07T13:04:36;21.08;;;18.88;;
55003;SDS011;40900;52.710;6.438;2023-05-07T13:07:02;23.70;;;19.17;;
55003;SDS011;40900;52.710;6.438;2023-05-07T13:09:28;20.27;;;18.13;;
55003;SDS011;40900;52.710;6.438;2023-05-07T13:11:54;19.75;;;17.75;;
55003;SDS011;40900;52.710;6.438;2023-05-07T13:14:20;20.20;;;18.20;;
55003;SDS011;40900;52.710;6.438;2023-05-07T13:16:46;19.10;;;17.15;;
55003;SDS011;40900;52.710;6.438;2023-05-07T13:19:12;20.50;;;18.35;;
55003;SDS011;40900;52.710;6.438;2023-05-07T13:21:38;21.05;;;18.98;;
55003;SDS011;40900;52.710;6.438;2023-05-07T13:24:04;21.88;;;19.08;;
55003;SDS011;40900;52.710;6.438;2023-05-07T13:26:31;21.10;;;18.98;;
55003;SDS011;40900;52.710;6.438;2023-05-07T13:28:56;19.58;;;17.58;;
55003;SDS011;40900;52.710;6.438;2023-05-07T13:31:22;19.10;;;16.98;;
55003;SDS011;40900;52.710;6.438;2023-05-07T13:33:49;17.92;;;16.02;;
55003;SDS011;40900;52.710;6.438;2023-05-07T13:36:15;19.45;;;17.42;;
55003;SDS011;40900;52.710;6.438;2023-05-07T13:38:40;19.27;;;17.35;;
55003;SDS011;40900;52.710;6.438;2023-05-07T13:41:06;19.58;;;17.15;;
55003;SDS011;40900;52.710;6.438;2023-05-07T13:43:32;19.83;;;17.85;;
55003;SDS011;40900;52.710;6.438;2023-05-07T13:45:59;19.45;;;16.08;;
55003;SDS011;40900;52.710;6.438;2023-05-07T13:48:25;19.23;;;15.65;;
55003;SDS011;40900;52.710;6.438;2023-05-07T13:50:51;18.23;;;16.42;;
55003;SDS011;40900;52.710;6.438;2023-05-07T13:53:17;20.70;;;17.48;;
55003;SDS011;40900;52.710;6.438;2023-05-07T13:55:43;17.67;;;15.88;;
55003;SDS011;40900;52.710;6.438;2023-05-07T13:58:10;18.35;;;16.48;;
55003;SDS011;40900;52.710;6.438;2023-05-07T14:00:36;20.25;;;16.92;;
55003;SDS011;40900;52.710;6.438;2023-05-07T14:03:02;19.95;;;17.17;;
55003;SDS011;40900;52.710;6.438;2023-05-07T14:05:30;20.30;;;17.48;;
55003;SDS011;40900;52.710;6.438;2023-05-07T14:07:58;18.75;;;16.75;;
55003;SDS011;40900;52.710;6.438;2023-05-07T14:10:24;18.92;;;16.92;;
55003;SDS011;40900;52.710;6.438;2023-05-07T14:12:50;21.10;;;17.35;;
55003;SDS011;40900;52.710;6.438;2023-05-07T14:15:17;18.88;;;16.95;;
55003;SDS011;40900;52.710;6.438;2023-05-07T14:17:43;18.73;;;16.77;;
55003;SDS011;40900;52.710;6.438;2023-05-07T14:20:09;18.35;;;16.40;;
55003;SDS011;40900;52.710;6.438;2023-05-07T14:22:36;18.25;;;16.35;;
55003;SDS011;40900;52.710;6.438;2023-05-07T14:25:02;19.17;;;17.17;;
55003;SDS011;40900;52.710;6.438;2023-05-07T14:27:28;18.42;;;16.60;;
55003;SDS011;40900;52.710;6.438;2023-05-07T14:29:54;19.30;;;16.80;;
55003;SDS011;40900;52.710;6.438;2023-05-07T14:32:20;17.10;;;15.27;;
55003;SDS011;40900;52.710;6.438;2023-05-07T14:34:46;18.23;;;15.70;;
55003;SDS011;40900;52.710;6.438;2023-05-07T14:37:12;19.15;;;17.15;;
55003;SDS011;40900;52.710;6.438;2023-05-07T14:39:38;17.52;;;15.85;;
55003;SDS011;40900;52.710;6.438;2023-05-07T14:42:04;17.75;;;15.95;;